Terminal Aerodrome Forecast
Issued by NWS

Home | Current Version | Previous Version | Text Only | Print | Product List | Glossary On
Versions: 1 2 3 4 5 6 7 8 9 10 11 12 13
619
FTUS43 KICT 141123
TAFCNU
TAF
KCNU 141123Z 1412/1512 07009KT P6SM OVC035
      TEMPO 1413/1415 OVC025
     FM141500 22007KT P6SM SCT030 BKN050
     FM141800 27008KT P6SM SCT120
     FM150100 VRB04KT P6SM BKN150=

USA.gov is the U.S. government's official web portal to all federal, state and local government web resources and services.